createdAt,value
2023-04-01T00:07:15.362Z,3.28
2023-04-01T00:14:49.211Z,2.55
2023-04-01T00:22:25.001Z,2.75
2023-04-01T00:29:59.009Z,1.83
2023-04-01T00:37:37.910Z,2.43
2023-04-01T00:45:34.187Z,2.10
2023-04-01T00:53:10.713Z,1.50
2023-04-01T01:00:45.322Z,2.30
2023-04-01T01:08:33.067Z,3.42
2023-04-01T01:16:13.405Z,2.50
2023-04-01T01:24:15.939Z,1.60
2023-04-01T01:31:59.038Z,1.27
2023-04-01T01:39:36.994Z,2.65
2023-04-01T01:47:11.641Z,2.92
2023-04-01T01:54:51.468Z,3.30
2023-04-01T02:02:27.354Z,4.07
2023-04-01T02:10:03.467Z,3.13
2023-04-01T02:17:42.345Z,10.20
2023-04-01T02:25:22.842Z,3.15
2023-04-01T02:32:57.865Z,4.88
2023-04-01T02:40:44.225Z,2.50
2023-04-01T02:48:18.177Z,2.55
2023-04-01T02:55:53.523Z,3.97
2023-04-01T03:03:27.591Z,3.17
2023-04-01T03:11:03.735Z,3.03
2023-04-01T03:26:30.292Z,4.38
2023-04-01T03:41:57.128Z,4.50
2023-04-01T03:49:33.174Z,3.17
2023-04-01T03:57:27.514Z,4.28
2023-04-01T04:05:01.557Z,2.95
2023-04-01T04:12:36.875Z,2.93
2023-04-01T04:20:11.411Z,3.65
2023-04-01T04:27:46.666Z,2.90
2023-04-01T04:35:20.485Z,3.67
2023-04-01T04:42:56.008Z,4.97
2023-04-01T04:50:29.934Z,4.82
2023-04-01T04:58:05.073Z,4.20
2023-04-01T05:05:39.039Z,3.20
2023-04-01T05:13:14.350Z,3.73
2023-04-01T05:20:49.891Z,3.72
2023-04-01T05:28:25.302Z,3.60
2023-04-01T05:36:07.237Z,4.32
2023-04-01T05:43:42.929Z,5.53
2023-04-01T05:51:17.587Z,4.75
2023-04-01T05:58:55.614Z,6.07
2023-04-01T06:06:33.035Z,5.20
2023-04-01T06:14:19.814Z,7.25
2023-04-01T06:22:19.322Z,4.82
2023-04-01T06:30:08.456Z,4.35
2023-04-01T06:38:03.407Z,4.10
2023-04-01T06:45:44.880Z,8.50
2023-04-01T06:53:23.850Z,6.43
2023-04-01T07:01:03.929Z,4.10
2023-04-01T07:08:42.142Z,4.47
2023-04-01T07:16:21.830Z,2.78
2023-04-01T07:23:59.113Z,6.65
2023-04-01T07:31:54.202Z,7.35
2023-04-01T07:39:39.344Z,4.17
2023-04-01T07:47:35.608Z,2.25
2023-04-01T07:55:17.106Z,3.45
2023-04-01T08:03:10.240Z,3.83
2023-04-01T08:10:52.681Z,4.75
2023-04-01T08:18:43.951Z,2.78
2023-04-01T08:26:25.590Z,1.88
2023-04-01T08:34:05.929Z,4.95
2023-04-01T08:42:06.732Z,5.82
2023-04-01T08:50:01.946Z,3.70
2023-04-01T08:57:46.876Z,2.05
2023-04-01T09:05:32.191Z,5.15
2023-04-01T09:13:29.154Z,4.78
2023-04-01T09:29:43.314Z,1.85
2023-04-01T09:37:23.595Z,2.22
2023-04-01T09:45:01.050Z,3.38
2023-04-01T09:52:48.982Z,3.80
2023-04-01T10:00:40.380Z,5.88
2023-04-01T10:08:39.528Z,7.07
2023-04-01T10:16:46.701Z,6.50
2023-04-01T10:24:54.703Z,6.97
2023-04-01T10:32:58.839Z,5.78
2023-04-01T10:41:03.366Z,7.93
2023-04-01T10:49:28.028Z,8.73
2023-04-01T10:57:10.998Z,10.05
2023-04-01T11:05:02.698Z,9.40
2023-04-01T11:13:21.369Z,8.48
2023-04-01T11:21:26.608Z,6.93
2023-04-01T11:29:16.262Z,8.97
2023-04-01T11:37:03.462Z,12.38
2023-04-01T11:44:47.472Z,10.60
2023-04-01T11:52:36.840Z,9.43
2023-04-01T12:00:35.395Z,10.35
2023-04-01T12:08:22.495Z,11.63
2023-04-01T12:16:28.341Z,8.82
2023-04-01T12:32:04.768Z,4.85
2023-04-01T12:48:17.286Z,5.65
2023-04-01T12:55:53.593Z,5.68
2023-04-01T13:03:47.022Z,12.23
2023-04-01T13:11:26.234Z,9.57
2023-04-01T13:27:08.205Z,7.03
2023-04-01T13:34:56.459Z,9.30
2023-04-01T13:42:36.412Z,13.20
2023-04-01T13:50:34.748Z,14.95
2023-04-01T13:58:41.231Z,14.18
2023-04-01T14:06:33.409Z,12.93
2023-04-01T14:14:18.626Z,14.60
2023-04-01T14:21:59.224Z,11.82
2023-04-01T14:29:40.791Z,10.98
2023-04-01T14:37:41.550Z,10.88
2023-04-01T14:45:36.815Z,11.15
2023-04-01T15:01:16.172Z,8.77
2023-04-01T15:08:59.914Z,7.47
2023-04-01T15:16:42.045Z,7.47
2023-04-01T15:24:23.563Z,9.27
2023-04-01T15:40:04.459Z,7.47
2023-04-01T15:47:44.974Z,10.18
2023-04-01T15:55:32.943Z,9.85
2023-04-01T16:03:21.472Z,8.02
2023-04-01T16:11:11.051Z,7.60
2023-04-01T16:19:05.581Z,7.97
2023-04-01T16:34:48.851Z,9.93
2023-04-01T16:42:33.182Z,12.68
2023-04-01T16:50:16.786Z,7.00
2023-04-01T16:57:54.424Z,8.57
2023-04-01T17:05:42.271Z,9.38
2023-04-01T17:13:37.079Z,8.40
2023-04-01T17:29:17.350Z,7.22
2023-04-01T17:37:03.744Z,5.65
2023-04-01T17:44:51.738Z,7.55
2023-04-01T17:52:31.519Z,8.48
2023-04-01T18:00:23.005Z,6.65
2023-04-01T18:08:16.445Z,8.48
2023-04-01T18:16:04.859Z,9.55
2023-04-01T18:23:52.103Z,6.40
2023-04-01T18:31:37.354Z,9.38
2023-04-01T18:39:17.846Z,9.10
2023-04-01T18:47:02.166Z,7.43
2023-04-01T18:54:48.228Z,7.33
2023-04-01T19:02:32.006Z,7.95
2023-04-01T19:10:18.859Z,8.43
2023-04-01T19:18:11.107Z,8.20
2023-04-01T19:25:51.820Z,7.72
2023-04-01T19:33:41.342Z,9.35
2023-04-01T19:41:27.645Z,13.07
2023-04-01T19:49:17.609Z,10.23
2023-04-01T19:56:57.933Z,10.55
2023-04-01T20:04:38.338Z,10.15
2023-04-01T20:12:21.086Z,11.25
2023-04-01T20:20:01.511Z,11.73
2023-04-01T20:27:42.030Z,8.85
2023-04-01T20:35:29.327Z,12.35
2023-04-01T20:43:25.463Z,12.05
2023-04-01T20:51:05.832Z,13.07
2023-04-01T20:58:54.030Z,13.60
2023-04-01T21:06:50.694Z,13.45
2023-04-01T21:14:48.730Z,12.73
2023-04-01T21:22:52.559Z,11.52
2023-04-01T21:30:50.642Z,9.20
2023-04-01T21:38:46.201Z,10.52
2023-04-01T21:47:02.962Z,7.75
2023-04-01T22:03:47.019Z,7.20
2023-04-01T22:11:33.525Z,9.40
2023-04-01T22:19:21.024Z,15.23
2023-04-01T22:27:02.176Z,13.27
2023-04-01T22:34:45.636Z,10.30
2023-04-01T22:42:37.098Z,9.02
2023-04-01T22:50:21.666Z,7.30
2023-04-01T22:58:01.726Z,6.20
2023-04-01T23:05:41.574Z,6.80
2023-04-01T23:13:20.850Z,6.65
2023-04-01T23:21:16.810Z,6.43
2023-04-01T23:28:53.691Z,6.90
2023-04-01T23:36:29.738Z,8.63
2023-04-01T23:44:07.074Z,7.43
2023-04-01T23:51:52.597Z,9.30
2023-04-01T23:59:31.355Z,6.22
